createdAt,value
2023-03-10T00:00:04.373Z,5.83
2023-03-10T00:16:01.596Z,5.72
2023-03-10T00:31:03.680Z,5.72
2023-03-10T00:46:00.884Z,5.61
2023-03-10T01:00:02.812Z,5.33
2023-03-10T01:16:00.334Z,5.17
2023-03-10T01:31:02.602Z,5
2023-03-10T01:46:04.751Z,4.89
2023-03-10T02:00:01.550Z,4.83
2023-03-10T02:16:03.955Z,4.72
2023-03-10T02:31:00.953Z,4.61
2023-03-10T02:46:03.049Z,4.44
2023-03-10T03:00:04.985Z,4.17
2023-03-10T03:16:02.152Z,3.89
2023-03-10T03:31:04.348Z,3.61
2023-03-10T03:46:01.654Z,3.44
2023-03-10T04:00:03.688Z,3.28
2023-03-10T04:16:00.833Z,3.11
2023-03-10T04:31:02.806Z,3.11
2023-03-10T04:46:04.911Z,2.94
2023-03-10T05:00:03.261Z,2.78
2023-03-10T05:16:04.151Z,2.72
2023-03-10T05:31:01.281Z,2.67
2023-03-10T05:46:03.479Z,2.61
2023-03-10T06:00:00.793Z,2.61
2023-03-10T06:16:02.896Z,2.67
2023-03-10T06:31:05.024Z,2.83
2023-03-10T06:46:02.230Z,3.06
2023-03-10T07:00:04.200Z,3.39
2023-03-10T07:16:01.447Z,3.72
2023-03-10T07:31:00.855Z,4
2023-03-10T07:46:01.476Z,4.33
2023-03-10T08:00:02.780Z,4.78
2023-03-10T08:16:05.117Z,5.33
2023-03-10T08:31:05.352Z,6.33
2023-03-10T08:46:06.190Z,7.33
2023-03-10T09:00:01.441Z,7.72
2023-03-10T09:16:03.690Z,8
2023-03-10T09:31:00.704Z,8.28
2023-03-10T09:46:02.896Z,9
2023-03-10T10:00:04.851Z,10.06
2023-03-10T10:16:21.269Z,10.33
2023-03-10T10:31:04.407Z,10.33
2023-03-10T10:46:01.594Z,11.11
2023-03-10T11:00:03.550Z,12.5
2023-03-10T11:16:00.917Z,13.44
2023-03-10T11:31:03.124Z,14.06
2023-03-10T11:46:05.004Z,14
2023-03-10T12:00:02.110Z,13.5
2023-03-10T12:16:04.456Z,14.17
2023-03-10T12:31:01.742Z,14.61
2023-03-10T12:46:03.843Z,15.44
2023-03-10T13:00:00.960Z,16
2023-03-10T13:16:03.370Z,16.89
2023-03-10T13:31:00.668Z,17.11
2023-03-10T13:46:02.780Z,17.56
2023-03-10T14:00:04.917Z,17.72
2023-03-10T14:16:02.179Z,17.56
2023-03-10T14:31:04.462Z,17.78
2023-03-10T14:46:01.697Z,17.67
2023-03-10T15:00:03.627Z,17.56
2023-03-10T15:16:01.199Z,17.17
2023-03-10T15:31:03.037Z,16.83
2023-03-10T15:46:00.429Z,16.22
2023-03-10T16:00:02.550Z,15.78
2023-03-10T16:16:04.740Z,15.72
2023-03-10T16:31:01.988Z,15.39
2023-03-10T16:46:04.352Z,14.89
2023-03-10T17:00:01.357Z,14.28
2023-03-10T17:16:03.512Z,13.56
2023-03-10T17:31:00.670Z,12.67
2023-03-10T17:46:02.671Z,11.67
2023-03-10T18:00:04.639Z,11
2023-03-10T18:16:02.096Z,10.33
2023-03-10T18:31:04.092Z,9.83
2023-03-10T18:46:01.347Z,9.72
2023-03-10T19:00:03.274Z,9.89
2023-03-10T19:16:00.839Z,10.22
2023-03-10T19:31:03.039Z,10.22
2023-03-10T19:46:00.017Z,9.72
2023-03-10T20:00:01.910Z,9.22
2023-03-10T20:16:04.221Z,8.72
2023-03-10T20:31:01.644Z,8.44
2023-03-10T20:46:03.507Z,8.28
2023-03-10T21:00:00.757Z,8.06
2023-03-10T21:16:02.770Z,7.83
2023-03-10T21:31:04.995Z,7.56
2023-03-10T21:46:02.154Z,7.39
2023-03-10T22:00:04.119Z,7.17
2023-03-10T22:16:01.469Z,6.94
2023-03-10T22:31:03.549Z,6.83
2023-03-10T22:46:01.008Z,6.78
2023-03-10T23:00:02.714Z,6.72
2023-03-10T23:16:00.155Z,6.67
2023-03-10T23:31:02.341Z,6.56
2023-03-10T23:46:04.725Z,6.33
